Time;durP1;ratioP1;P1;durP2;ratioP2;P2;SDS_P1;SDS_P2;PMS_P1;PMS_P2;Temp;Humidity;BMP_temperature;BMP_pressure;BME280_temperature;BME280_humidity;BME280_pressure;Samples;Min_cycle;Max_cycle;Signal;HPM_P1;HPM_P2
2022/03/29 00:01:16;;;;;;;12.93;6.60;;;9.30;99.90;;;;;;5089457;28;20463;-69
2022/03/29 00:03:43;;;;;;;9.70;5.53;;;9.20;99.90;;;;;;5089112;28;20457;-68
2022/03/29 00:06:10;;;;;;;9.90;6.47;;;9.20;99.90;;;;;;5079320;28;20451;-68
2022/03/29 00:08:37;;;;;;;9.73;6.17;;;9.10;99.90;;;;;;5090780;28;20536;-69
2022/03/29 00:11:04;;;;;;;8.30;5.80;;;9.00;99.90;;;;;;5090829;28;20535;-68
2022/03/29 00:13:32;;;;;;;11.70;7.00;;;9.10;99.90;;;;;;5089948;28;20819;-68
2022/03/29 00:15:59;;;;;;;9.00;6.53;;;9.00;99.90;;;;;;5087999;28;20452;-68
2022/03/29 00:18:26;;;;;;;7.83;6.30;;;9.00;99.90;;;;;;5088925;28;20571;-69
2022/03/29 00:20:53;;;;;;;11.63;7.00;;;9.00;99.90;;;;;;5085153;28;20477;-68
2022/03/29 00:23:20;;;;;;;8.40;6.10;;;8.90;99.90;;;;;;5077664;28;20440;-68
2022/03/29 00:25:47;;;;;;;8.43;6.50;;;8.90;99.90;;;;;;5092085;28;20619;-68
2022/03/29 00:28:14;;;;;;;9.00;6.23;;;8.90;99.90;;;;;;5092116;28;20455;-68
2022/03/29 00:30:42;;;;;;;10.97;8.00;;;8.80;99.90;;;;;;5092908;28;20449;-68
2022/03/29 00:33:09;;;;;;;8.73;6.57;;;8.80;99.90;;;;;;5076682;28;20449;-69
2022/03/29 00:35:36;;;;;;;9.00;5.80;;;8.80;99.90;;;;;;5080508;28;20945;-68
2022/03/29 00:38:04;;;;;;;13.53;7.00;;;8.70;99.90;;;;;;5085310;28;20477;-68
2022/03/29 00:40:31;;;;;;;7.60;5.57;;;8.70;99.90;;;;;;5090265;28;20448;-68
2022/03/29 00:42:58;;;;;;;9.33;6.33;;;8.70;99.90;;;;;;5089969;28;20449;-68
2022/03/29 00:45:25;;;;;;;9.60;6.47;;;8.80;99.90;;;;;;5079960;28;20560;-68
2022/03/29 00:47:53;;;;;;;9.50;6.70;;;8.70;99.90;;;;;;5089520;28;20524;-68
2022/03/29 00:50:20;;;;;;;8.47;6.23;;;8.80;99.90;;;;;;5091047;28;20451;-68
2022/03/29 00:52:47;;;;;;;10.70;6.30;;;8.90;99.90;;;;;;5076808;28;20448;-68
2022/03/29 00:55:16;;;;;;;13.40;7.60;;;8.90;99.90;;;;;;5087260;28;20445;-68
2022/03/29 00:57:45;;;;;;;10.13;6.67;;;8.90;99.90;;;;;;5073246;28;20567;-70
2022/03/29 01:00:13;;;;;;;10.50;6.93;;;9.10;99.90;;;;;;5083447;28;20452;-69
2022/03/29 01:02:40;;;;;;;10.47;6.67;;;8.80;99.90;;;;;;5078527;28;20467;-69
2022/03/29 01:05:09;;;;;;;7.97;5.63;;;8.80;99.90;;;;;;5078748;28;20525;-69
2022/03/29 01:07:36;;;;;;;9.57;6.77;;;8.80;99.90;;;;;;5079040;28;20521;-69
2022/03/29 01:10:06;;;;;;;8.83;6.37;;;9.10;99.90;;;;;;5092823;28;20808;-69
2022/03/29 01:12:34;;;;;;;8.93;6.53;;;8.90;99.90;;;;;;5078891;28;20527;-69
2022/03/29 01:15:04;;;;;;;7.47;6.57;;;8.80;99.90;;;;;;5085964;28;20528;-70
2022/03/29 01:17:40;;;;;;;14.07;6.40;;;8.70;99.90;;;;;;5091295;28;20546;-70
2022/03/29 01:20:13;;;;;;;8.17;6.40;;;8.80;99.90;;;;;;5089074;28;20813;-69
2022/03/29 01:22:43;;;;;;;10.53;5.97;;;8.80;99.90;;;;;;5083365;28;20957;-68
2022/03/29 01:25:13;;;;;;;11.37;6.50;;;8.80;99.90;;;;;;5092808;28;20441;-69
2022/03/29 01:27:40;;;;;;;12.03;6.10;;;8.80;99.90;;;;;;5091559;28;20543;-69
2022/03/29 01:30:08;;;;;;;7.10;5.70;;;8.90;99.90;;;;;;5091418;28;20445;-69
2022/03/29 01:32:39;;;;;;;10.57;6.63;;;8.90;99.90;;;;;;5090118;28;20480;-69
2022/03/29 01:35:07;;;;;;;6.33;5.50;;;8.80;99.90;;;;;;5079783;28;20449;-68
2022/03/29 01:37:35;;;;;;;9.90;6.50;;;8.80;99.90;;;;;;5089999;28;20575;-69
2022/03/29 01:40:08;;;;;;;11.43;6.87;;;9.60;99.90;;;;;;5071135;28;20445;-68
2022/03/29 01:42:35;;;;;;;11.00;7.27;;;9.00;99.90;;;;;;5083246;28;20499;-69
2022/03/29 01:45:02;;;;;;;9.50;6.90;;;9.40;99.90;;;;;;5084100;28;20476;-69
2022/03/29 01:47:29;;;;;;;12.00;7.90;;;9.00;99.90;;;;;;5093855;28;20491;-68
2022/03/29 01:49:57;;;;;;;10.63;6.83;;;9.00;99.90;;;;;;5093471;28;20499;-68
2022/03/29 01:52:23;;;;;;;11.83;6.63;;;9.00;99.90;;;;;;5093599;28;20448;-70
2022/03/29 01:54:51;;;;;;;10.57;7.50;;;9.00;99.90;;;;;;5084913;28;20872;-69
2022/03/29 01:57:19;;;;;;;9.13;5.73;;;9.00;99.90;;;;;;5090722;28;20849;-69
2022/03/29 02:02:30;;;;;;;10.03;6.97;;;9.10;99.90;;;;;;5084378;28;20440;-69
2022/03/29 02:04:57;;;;;;;12.87;7.83;;;9.10;99.90;;;;;;5080991;28;20445;-69
2022/03/29 02:07:24;;;;;;;11.37;6.10;;;9.10;99.90;;;;;;5092142;28;20513;-69
2022/03/29 02:09:51;;;;;;;10.50;6.90;;;9.10;99.90;;;;;;5093196;28;20449;-68
2022/03/29 02:12:19;;;;;;;10.90;6.27;;;9.20;99.90;;;;;;5089167;28;20532;-68
2022/03/29 02:14:46;;;;;;;9.17;5.97;;;9.20;99.90;;;;;;5093409;28;20472;-70
2022/03/29 02:17:13;;;;;;;8.37;5.90;;;9.20;99.90;;;;;;5087655;28;21025;-70
2022/03/29 02:19:40;;;;;;;9.17;6.70;;;9.20;99.90;;;;;;5080214;28;20537;-69
2022/03/29 02:22:07;;;;;;;9.43;5.90;;;9.20;99.90;;;;;;5091350;28;20445;-68
2022/03/29 02:24:34;;;;;;;7.63;6.53;;;9.30;99.90;;;;;;5092366;28;20475;-68
2022/03/29 02:27:01;;;;;;;12.83;7.07;;;9.30;99.90;;;;;;5086670;28;20449;-68
2022/03/29 02:29:29;;;;;;;15.43;7.40;;;9.20;99.90;;;;;;5092884;28;20451;-68
2022/03/29 02:31:56;;;;;;;11.03;7.20;;;9.20;99.90;;;;;;5086904;28;20442;-68
2022/03/29 02:34:22;;;;;;;8.33;6.80;;;9.20;99.90;;;;;;5085176;28;20448;-68
2022/03/29 02:36:50;;;;;;;9.57;5.60;;;9.20;99.90;;;;;;5091953;28;20559;-69
2022/03/29 02:39:17;;;;;;;9.77;6.47;;;9.20;99.90;;;;;;5092557;28;21058;-69
2022/03/29 02:41:44;;;;;;;9.33;6.70;;;9.10;99.90;;;;;;5092385;28;20467;-69
2022/03/29 02:44:11;;;;;;;10.67;7.47;;;9.20;99.90;;;;;;5091555;28;20835;-70
2022/03/29 02:46:40;;;;;;;10.00;6.30;;;9.20;99.90;;;;;;5083560;28;20512;-69
2022/03/29 02:49:07;;;;;;;8.60;6.27;;;9.30;99.90;;;;;;5091147;28;20509;-69
2022/03/29 02:51:34;;;;;;;8.40;6.57;;;9.20;99.90;;;;;;5084705;28;20527;-69
2022/03/29 02:54:01;;;;;;;9.60;6.50;;;9.10;99.90;;;;;;5091288;28;20440;-69
2022/03/29 02:56:29;;;;;;;11.93;6.67;;;9.30;99.90;;;;;;5081667;28;20453;-69
2022/03/29 02:58:56;;;;;;;11.90;7.03;;;9.30;99.90;;;;;;5091994;28;20484;-69
2022/03/29 03:01:23;;;;;;;11.90;6.87;;;9.30;99.90;;;;;;5088848;28;20521;-68
2022/03/29 03:03:51;;;;;;;14.93;7.40;;;9.20;99.90;;;;;;5086774;28;20448;-69
2022/03/29 03:06:18;;;;;;;7.87;6.27;;;9.30;99.90;;;;;;5087053;28;20448;-71
2022/03/29 03:08:46;;;;;;;9.77;6.30;;;9.30;99.90;;;;;;5088165;28;20480;-68
2022/03/29 03:11:13;;;;;;;9.23;5.07;;;9.30;99.90;;;;;;5091312;28;20448;-70
2022/03/29 03:13:40;;;;;;;13.50;6.67;;;9.40;99.90;;;;;;5086935;28;20813;-70
2022/03/29 03:16:07;;;;;;;9.67;6.00;;;9.40;99.90;;;;;;5071932;28;20463;-70
2022/03/29 03:18:34;;;;;;;8.57;5.90;;;9.20;99.90;;;;;;5091713;28;20483;-69
2022/03/29 03:21:02;;;;;;;9.23;6.23;;;9.20;99.90;;;;;;5091841;28;20559;-68
2022/03/29 03:23:30;;;;;;;8.83;6.80;;;9.10;99.90;;;;;;5091383;28;20453;-69
2022/03/29 03:25:57;;;;;;;10.30;6.10;;;9.10;99.90;;;;;;5092011;28;20527;-69
2022/03/29 03:28:24;;;;;;;14.87;7.20;;;9.00;99.90;;;;;;5079058;28;20455;-69
2022/03/29 03:30:53;;;;;;;12.13;6.10;;;9.10;99.90;;;;;;5082838;28;20544;-69
2022/03/29 03:33:19;;;;;;;13.27;7.47;;;9.00;99.90;;;;;;5076281;28;20456;-69
2022/03/29 03:35:47;;;;;;;11.97;5.70;;;9.10;99.90;;;;;;5091895;28;20451;-68
2022/03/29 03:38:15;;;;;;;19.33;7.20;;;9.20;99.90;;;;;;5086109;28;20504;-69
2022/03/29 03:40:42;;;;;;;9.77;6.40;;;9.20;99.90;;;;;;5071751;28;20457;-69
2022/03/29 03:43:09;;;;;;;14.03;6.80;;;9.20;99.90;;;;;;5089784;28;20453;-69
2022/03/29 03:45:36;;;;;;;12.03;7.10;;;9.10;99.90;;;;;;5083934;28;20480;-69
2022/03/29 03:48:03;;;;;;;11.00;6.80;;;9.20;99.90;;;;;;5090727;28;20519;-69
2022/03/29 03:50:30;;;;;;;10.00;6.73;;;9.30;99.90;;;;;;5075802;28;20442;-68
2022/03/29 03:52:57;;;;;;;11.40;6.60;;;9.20;99.90;;;;;;5083670;28;20944;-68
2022/03/29 03:55:25;;;;;;;10.27;6.90;;;8.90;99.90;;;;;;5081479;28;20535;-68
2022/03/29 03:57:52;;;;;;;9.53;6.70;;;9.30;99.90;;;;;;5079975;28;20472;-68
2022/03/29 04:00:21;;;;;;;14.97;6.53;;;9.20;99.90;;;;;;5072396;28;20471;-69
2022/03/29 04:02:49;;;;;;;10.73;7.50;;;9.50;99.90;;;;;;5091431;28;20527;-69
2022/03/29 04:05:16;;;;;;;9.07;7.10;;;9.60;99.90;;;;;;5077224;28;20701;-69
2022/03/29 04:07:43;;;;;;;9.77;7.17;;;9.70;99.90;;;;;;5079888;28;20491;-70
2022/03/29 04:10:11;;;;;;;10.40;7.23;;;9.80;99.90;;;;;;5089093;28;20453;-69
2022/03/29 04:12:40;;;;;;;8.60;6.93;;;9.90;99.90;;;;;;5090837;28;20936;-68
2022/03/29 04:15:08;;;;;;;14.03;8.33;;;9.90;99.90;;;;;;5081448;28;20998;-67
2022/03/29 04:17:35;;;;;;;15.07;9.30;;;9.90;99.90;;;;;;5080149;28;20449;-69
2022/03/29 04:20:03;;;;;;;12.50;8.07;;;10.00;99.90;;;;;;5090723;28;20791;-68
2022/03/29 04:22:30;;;;;;;16.33;8.23;;;10.00;99.90;;;;;;5090803;28;20444;-69
2022/03/29 04:24:57;;;;;;;13.67;7.67;;;9.90;99.90;;;;;;5090666;28;21053;-68
2022/03/29 04:27:24;;;;;;;15.00;8.40;;;9.90;99.90;;;;;;5091107;28;20976;-69
2022/03/29 04:29:52;;;;;;;12.17;7.83;;;10.00;99.90;;;;;;5087904;28;20937;-70
2022/03/29 04:32:19;;;;;;;14.10;7.50;;;10.00;99.90;;;;;;5070392;28;21043;-69
2022/03/29 04:34:47;;;;;;;10.43;7.60;;;10.10;99.90;;;;;;5087389;28;20932;-70
2022/03/29 04:37:14;;;;;;;11.90;7.77;;;10.10;99.90;;;;;;5090386;28;20490;-69
2022/03/29 04:39:41;;;;;;;14.20;7.77;;;10.00;99.90;;;;;;5090326;28;20487;-70
2022/03/29 04:42:09;;;;;;;11.03;6.73;;;10.00;99.90;;;;;;5089501;28;20444;-68
2022/03/29 04:44:35;;;;;;;12.77;7.40;;;9.40;99.90;;;;;;5090638;28;21012;-69
2022/03/29 04:47:05;;;;;;;13.83;7.33;;;9.30;99.90;;;;;;5089959;28;20559;-69
2022/03/29 04:49:31;;;;;;;11.97;7.63;;;8.90;99.90;;;;;;5081787;28;20823;-71
2022/03/29 04:51:59;;;;;;;14.70;6.47;;;9.00;99.90;;;;;;5077585;28;20441;-69
2022/03/29 04:54:26;;;;;;;13.20;5.90;;;8.90;99.90;;;;;;5088601;28;20448;-68
2022/03/29 04:56:53;;;;;;;11.73;6.77;;;9.30;99.90;;;;;;5090332;28;20502;-68
2022/03/29 04:59:20;;;;;;;10.00;6.30;;;8.70;99.90;;;;;;5090092;28;20522;-68
2022/03/29 05:01:47;;;;;;;11.93;7.37;;;8.40;99.90;;;;;;5085813;28;20440;-69
2022/03/29 05:04:15;;;;;;;10.27;6.40;;;8.50;99.90;;;;;;5076483;28;20533;-70
2022/03/29 05:06:42;;;;;;;13.33;8.33;;;8.80;99.90;;;;;;5090779;28;20455;-70
2022/03/29 05:09:09;;;;;;;11.80;7.57;;;8.30;99.90;;;;;;5090060;28;20859;-69
2022/03/29 05:11:36;;;;;;;9.70;7.10;;;8.30;99.90;;;;;;5090298;28;20535;-69
2022/03/29 05:14:03;;;;;;;13.37;8.43;;;8.20;99.90;;;;;;5090063;28;20444;-68
2022/03/29 05:16:30;;;;;;;9.63;6.70;;;8.10;99.90;;;;;;5090956;28;20506;-69
2022/03/29 05:18:57;;;;;;;17.07;8.07;;;8.20;99.90;;;;;;5090130;28;20538;-69
2022/03/29 05:21:26;;;;;;;10.60;6.80;;;8.20;99.90;;;;;;5094618;28;20769;-69
2022/03/29 05:23:54;;;;;;;15.03;8.40;;;8.30;99.90;;;;;;5093986;28;20946;-69
2022/03/29 05:26:21;;;;;;;12.47;6.67;;;8.30;99.90;;;;;;5094960;28;20539;-69
2022/03/29 05:28:48;;;;;;;10.10;6.43;;;8.30;99.90;;;;;;5081585;28;20543;-68
2022/03/29 05:31:15;;;;;;;11.47;7.27;;;8.30;99.90;;;;;;5093697;28;20530;-69
2022/03/29 05:33:42;;;;;;;10.57;6.90;;;8.20;99.90;;;;;;5094597;28;20505;-69
2022/03/29 05:36:09;;;;;;;8.10;7.00;;;8.20;99.90;;;;;;5093867;28;20525;-69
2022/03/29 05:38:38;;;;;;;11.03;6.60;;;8.10;99.90;;;;;;5094101;28;21020;-69
2022/03/29 05:41:04;;;;;;;13.57;7.50;;;8.00;99.90;;;;;;5093121;28;20444;-69
2022/03/29 05:43:31;;;;;;;12.93;7.00;;;8.10;99.90;;;;;;5094186;28;20936;-69
2022/03/29 05:48:56;;;;;;;9.17;6.53;;;8.40;99.90;;;;;;5094366;28;20431;-69
2022/03/29 05:51:24;;;;;;;18.37;7.87;;;8.30;99.90;;;;;;5093448;28;20440;-69
2022/03/29 05:53:53;;;;;;;9.50;7.40;;;8.10;99.90;;;;;;5094283;28;20452;-69
2022/03/29 05:56:20;;;;;;;12.13;6.93;;;8.30;99.90;;;;;;5081166;28;20449;-70
2022/03/29 05:58:47;;;;;;;12.17;7.57;;;8.30;99.90;;;;;;5094158;28;20484;-70
2022/03/29 06:01:14;;;;;;;13.20;6.53;;;8.30;99.90;;;;;;5092801;28;20951;-69
2022/03/29 06:03:41;;;;;;;10.67;6.77;;;8.50;99.90;;;;;;5094097;28;20476;-69
2022/03/29 06:06:08;;;;;;;12.30;7.27;;;8.50;99.90;;;;;;5093358;28;20432;-70
2022/03/29 06:08:35;;;;;;;11.43;7.10;;;8.50;99.90;;;;;;5093756;28;20447;-69
2022/03/29 06:11:04;;;;;;;11.30;7.20;;;8.90;99.90;;;;;;5092863;28;20463;-69
2022/03/29 06:13:32;;;;;;;13.30;8.20;;;9.10;99.90;;;;;;5093678;28;20803;-69
2022/03/29 06:15:59;;;;;;;11.90;7.37;;;9.00;99.90;;;;;;5093455;28;20454;-69
2022/03/29 06:18:26;;;;;;;17.87;8.30;;;9.10;99.90;;;;;;5093542;28;20956;-69
2022/03/29 06:20:53;;;;;;;12.27;7.57;;;9.10;99.90;;;;;;5092292;28;20455;-69
2022/03/29 06:23:21;;;;;;;9.73;7.30;;;9.10;99.90;;;;;;5093370;28;20964;-69
2022/03/29 06:25:48;;;;;;;13.50;7.27;;;9.00;99.90;;;;;;5093885;28;20460;-69
2022/03/29 06:28:17;;;;;;;10.43;6.67;;;9.20;99.90;;;;;;5092821;28;20527;-70
2022/03/29 06:30:44;;;;;;;10.60;7.27;;;9.30;99.90;;;;;;5092319;28;20445;-69
2022/03/29 06:33:12;;;;;;;14.00;7.80;;;9.40;99.90;;;;;;5092731;28;21165;-69
2022/03/29 06:35:39;;;;;;;9.70;6.90;;;9.40;99.90;;;;;;5093284;28;20449;-69
2022/03/29 06:38:07;;;;;;;14.03;7.50;;;9.40;99.90;;;;;;5092708;28;20441;-69
2022/03/29 06:40:35;;;;;;;14.53;7.53;;;9.50;99.90;;;;;;5092899;28;20454;-69
2022/03/29 06:43:02;;;;;;;16.50;8.30;;;9.60;99.90;;;;;;5092281;28;20535;-70
2022/03/29 06:45:30;;;;;;;10.80;7.33;;;;;;;;;;5093120;28;20559;-70
2022/03/29 06:47:58;;;;;;;11.17;8.20;;;;;;;;;;5092608;28;20581;-69
2022/03/29 06:50:25;;;;;;;14.43;8.87;;;;;;;;;;5092978;28;20460;-69
2022/03/29 06:52:53;;;;;;;13.30;7.30;;;;;;;;;;5092284;28;20498;-69
2022/03/29 06:55:21;;;;;;;12.20;7.13;;;;;;;;;;5093157;28;20882;-69
2022/03/29 06:57:49;;;;;;;12.90;7.60;;;;;;;;;;5092917;28;20470;-70
2022/03/29 07:00:16;;;;;;;11.97;8.20;;;;;;;;;;5091635;28;20488;-69
2022/03/29 07:02:45;;;;;;;12.70;8.47;;;9.70;99.90;;;;;;5092892;28;20481;-70
2022/03/29 07:05:12;;;;;;;14.60;9.50;;;10.40;99.90;;;;;;5091996;28;20451;-68
2022/03/29 07:07:39;;;;;;;11.43;8.13;;;10.60;99.90;;;;;;5092174;28;20444;-69
2022/03/29 07:12:52;;;;;;;18.07;8.97;;;10.80;99.90;;;;;;5092670;28;20513;-69
2022/03/29 07:15:20;;;;;;;18.80;8.80;;;10.90;99.90;;;;;;5092351;28;20923;-70
2022/03/29 07:17:48;;;;;;;15.73;8.83;;;11.00;99.90;;;;;;5092331;28;20937;-69
2022/03/29 07:20:19;;;;;;;21.07;9.83;;;10.90;99.90;;;;;;5091455;28;20563;-70
2022/03/29 07:22:47;;;;;;;15.63;8.40;;;11.10;99.90;;;;;;5092197;28;20472;-69
2022/03/29 07:25:16;;;;;;;17.60;9.17;;;11.30;99.90;;;;;;5091563;28;20562;-69
2022/03/29 07:27:43;;;;;;;20.93;10.57;;;11.50;99.90;;;;;;5092158;28;20486;-70
2022/03/29 07:30:11;;;;;;;13.30;8.80;;;11.50;99.90;;;;;;5091068;28;20460;-69
2022/03/29 07:32:44;;;;;;;14.87;9.33;;;11.60;99.90;;;;;;5092351;28;20452;-69
2022/03/29 07:35:14;;;;;;;19.93;9.93;;;11.60;99.90;;;;;;5091364;28;20674;-70
2022/03/29 07:37:40;;;;;;;13.90;9.23;;;11.70;99.90;;;;;;5091568;28;20452;-70
2022/03/29 07:40:09;;;;;;;13.33;8.50;;;11.80;99.90;;;;;;5091083;28;20530;-70
2022/03/29 07:42:36;;;;;;;16.87;9.50;;;11.80;99.90;;;;;;5092118;28;20468;-70
2022/03/29 07:45:06;;;;;;;11.53;8.67;;;11.90;99.90;;;;;;5090850;28;20835;-69
2022/03/29 07:47:34;;;;;;;15.67;9.67;;;12.00;99.90;;;;;;5090471;28;20476;-69
2022/03/29 07:50:01;;;;;;;16.47;9.50;;;12.10;99.90;;;;;;5091111;28;20444;-69
2022/03/29 07:52:30;;;;;;;18.23;9.27;;;12.20;99.90;;;;;;5091480;28;20476;-69
2022/03/29 07:54:57;;;;;;;18.37;10.70;;;;;;;;;;5091142;28;20456;-68
2022/03/29 07:57:25;;;;;;;18.37;12.10;;;;;;;;;;5091510;28;21006;-70
2022/03/29 07:59:52;;;;;;;23.20;10.43;;;;;;;;;;5091159;28;20556;-69
2022/03/29 08:02:19;;;;;;;20.50;11.70;;;;;;;;;;5091047;28;20445;-70
2022/03/29 08:04:47;;;;;;;18.20;11.50;;;;;;;;;;5091481;28;20451;-69
2022/03/29 08:07:14;;;;;;;21.70;9.90;;;;;;;;;;5090570;28;20481;-70
2022/03/29 08:09:42;;;;;;;15.40;10.93;;;;;;;;;;5091706;28;20456;-70
2022/03/29 08:12:10;;;;;;;17.77;10.87;;;;;;;;;;5090624;28;20448;-70
2022/03/29 08:14:37;;;;;;;15.63;10.20;;;;;;;;;;5091404;28;20448;-70
2022/03/29 08:17:05;;;;;;;13.97;10.20;;;;;;;;;;5090524;28;20459;-71
2022/03/29 08:19:32;;;;;;;15.67;9.40;;;;;;;;;;5091223;28;20571;-69
2022/03/29 08:21:59;;;;;;;15.90;10.17;;;;;;;;;;5090476;28;20444;-69
2022/03/29 08:24:26;;;;;;;18.67;10.27;;;;;;;;;;5091445;28;20483;-70
2022/03/29 08:26:55;;;;;;;16.53;10.10;;;;;;;;;;5090420;28;20533;-69
2022/03/29 08:29:23;;;;;;;15.03;10.17;;;;;;;;;;5091311;28;20454;-71
2022/03/29 08:31:52;;;;;;;25.37;14.27;;;;;;;;;;5090874;28;20452;-70
2022/03/29 08:34:19;;;;;;;16.47;11.30;;;;;;;;;;5091390;28;20453;-70
2022/03/29 08:36:49;;;;;;;16.33;9.90;;;;;;;;;;5070894;28;20461;-69
2022/03/29 08:39:16;;;;;;;14.47;9.03;;;;;;;;;;5088294;28;20476;-69
2022/03/29 08:41:46;;;;;;;17.03;10.10;;;;;;;;;;5090543;28;20929;-70
2022/03/29 08:44:14;;;;;;;16.60;10.73;;;12.60;99.90;;;;;;5090136;28;20488;-69
2022/03/29 08:46:42;;;;;;;16.90;10.00;;;14.30;95.40;;;;;;5091053;28;20541;-69
2022/03/29 08:49:10;;;;;;;19.80;11.13;;;14.40;84.20;;;;;;5090344;28;20810;-69
2022/03/29 08:51:38;;;;;;;16.83;11.47;;;14.50;81.50;;;;;;5090182;28;20948;-70
2022/03/29 08:54:06;;;;;;;20.73;13.10;;;14.40;80.10;;;;;;5090047;28;20528;-69
2022/03/29 08:56:33;;;;;;;17.17;12.13;;;14.30;76.90;;;;;;5090980;28;20448;-69
2022/03/29 08:59:00;;;;;;;27.23;13.30;;;14.30;77.80;;;;;;5090298;28;20444;-70
2022/03/29 09:01:29;;;;;;;18.90;11.93;;;14.30;76.70;;;;;;5090357;28;20464;-70
2022/03/29 09:04:07;;;;;;;21.80;13.00;;;14.50;74.10;;;;;;5090044;28;20480;-69
2022/03/29 09:06:34;;;;;;;23.27;13.47;;;14.50;72.50;;;;;;5090339;28;20458;-70
2022/03/29 09:09:01;;;;;;;18.97;11.33;;;14.50;87.90;;;;;;5090004;28;20452;-70
2022/03/29 09:11:40;;;;;;;20.80;13.93;;;14.60;69.20;;;;;;5090083;28;20487;-70
2022/03/29 09:14:07;;;;;;;18.83;12.33;;;14.70;64.90;;;;;;5070005;28;20516;-70
2022/03/29 09:16:36;;;;;;;23.33;12.27;;;14.60;65.00;;;;;;5070776;28;20556;-70
2022/03/29 09:19:03;;;;;;;23.43;12.47;;;14.60;64.00;;;;;;5089946;28;20994;-70
2022/03/29 09:21:41;;;;;;;20.20;12.17;;;14.70;64.60;;;;;;5090042;28;20452;-70
2022/03/29 09:24:11;;;;;;;18.93;12.07;;;14.80;61.20;;;;;;5090234;28;20449;-69
2022/03/29 09:26:39;;;;;;;21.63;12.43;;;15.10;60.60;;;;;;5090245;28;20450;-70
2022/03/29 09:29:13;;;;;;;16.23;12.13;;;15.30;56.20;;;;;;5090144;28;20522;-70
2022/03/29 09:31:42;;;;;;;19.33;12.10;;;15.40;52.90;;;;;;5090015;28;20436;-69
2022/03/29 09:34:17;;;;;;;19.20;12.20;;;15.40;52.50;;;;;;5090169;28;20485;-71
2022/03/29 09:36:48;;;;;;;20.83;11.93;;;15.30;49.20;;;;;;5090300;28;20547;-70
2022/03/29 09:39:34;;;;;;;18.20;12.03;;;15.30;49.20;;;;;;5089858;28;20462;-70
2022/03/29 09:42:02;;;;;;;14.40;10.90;;;15.40;47.50;;;;;;5089454;28;20436;-70
2022/03/29 09:44:39;;;;;;;19.20;10.70;;;15.80;46.50;;;;;;5090459;28;20956;-71
2022/03/29 09:47:09;;;;;;;14.00;11.10;;;15.70;38.50;;;;;;5089687;28;20480;-69
2022/03/29 09:49:57;;;;;;;14.73;10.50;;;15.50;36.80;;;;;;5090421;28;20449;-70
2022/03/29 09:52:26;;;;;;;15.90;10.70;;;16.10;35.00;;;;;;5090269;28;20479;-71
2022/03/29 09:55:22;;;;;;;19.53;11.83;;;16.10;33.40;;;;;;5089835;28;20448;-70
2022/03/29 09:57:50;;;;;;;16.03;10.50;;;16.40;30.30;;;;;;5043628;28;20452;-69
2022/03/29 10:00:19;;;;;;;16.53;10.80;;;16.20;28.50;;;;;;5090123;28;20488;-70
2022/03/29 10:02:48;;;;;;;13.47;10.03;;;16.40;28.10;;;;;;5076694;28;21017;-71
2022/03/29 10:05:17;;;;;;;14.13;10.37;;;16.70;26.60;;;;;;5089751;28;20453;-70
2022/03/29 10:07:46;;;;;;;14.80;11.10;;;16.50;23.60;;;;;;5093190;28;20444;-71
2022/03/29 10:10:13;;;;;;;21.67;10.07;;;16.50;24.80;;;;;;5093096;28;20864;-70
2022/03/29 10:12:41;;;;;;;17.80;11.20;;;16.50;23.80;;;;;;5093874;28;20472;-71
2022/03/29 10:15:09;;;;;;;17.10;12.43;;;16.60;21.70;;;;;;5092783;28;20513;-71
2022/03/29 10:17:37;;;;;;;14.93;10.93;;;16.70;19.60;;;;;;5093617;28;20449;-70
2022/03/29 10:20:06;;;;;;;20.23;11.17;;;16.70;19.80;;;;;;5092429;28;20658;-70
2022/03/29 10:22:34;;;;;;;18.60;10.20;;;;;;;;;;5094007;28;20772;-70
2022/03/29 10:25:01;;;;;;;17.10;9.80;;;;;;;;;;5093345;28;20448;-70
2022/03/29 10:27:29;;;;;;;16.60;10.80;;;;;;;;;;5094886;28;20536;-71
2022/03/29 10:29:56;;;;;;;15.43;10.40;;;;;;;;;;5095342;28;20535;-71
2022/03/29 10:32:31;;;;;;;15.40;9.87;;;;;;;;;;5096279;28;20966;-71
2022/03/29 10:35:08;;;;;;;12.90;9.60;;;;;;;;;;5094631;28;20450;-70
2022/03/29 10:37:50;;;;;;;17.00;10.00;;;;;;;;;;5094066;28;20448;-71
2022/03/29 10:40:34;;;;;;;17.67;11.03;;;;;;;;;;5070674;28;20508;-70
2022/03/29 10:43:25;;;;;;;15.10;9.10;;;;;;;;;;5090899;28;20464;-69
2022/03/29 10:45:52;;;;;;;20.53;9.80;;;;;;;;;;5092739;28;20907;-69
2022/03/29 10:48:20;;;;;;;19.53;11.80;;;;;;;;;;5093383;28;20444;-70
2022/03/29 10:50:58;;;;;;;16.47;9.77;;;;;;;;;;5092420;28;20451;-70
2022/03/29 10:53:27;;;;;;;21.70;10.47;;;;;;;;;;5093124;28;20998;-71
2022/03/29 10:56:13;;;;;;;17.40;11.20;;;;;;;;;;5092240;28;20440;-69
2022/03/29 10:59:09;;;;;;;13.97;10.30;;;;;;;;;;5093291;28;20440;-70
2022/03/29 11:01:37;;;;;;;15.43;10.07;;;;;;;;;;5082896;28;20508;-70
2022/03/29 11:04:07;;;;;;;17.50;10.30;;;;;;;;;;5092568;28;20783;-70
2022/03/29 11:06:36;;;;;;;23.40;10.70;;;;;;;;;;5092743;28;20441;-70
2022/03/29 11:09:04;;;;;;;16.90;11.17;;;;;;;;;;5092047;28;20861;-70
2022/03/29 11:11:39;;;;;;;19.07;11.40;;;;;;;;;;5092463;28;20463;-70
2022/03/29 11:14:24;;;;;;;23.37;10.33;;;;;;;;;;5092093;28;20962;-69
2022/03/29 11:16:51;;;;;;;22.27;11.60;;;;;;;;;;5092381;28;20991;-71
2022/03/29 11:19:33;;;;;;;17.13;11.10;;;;;;;;;;5092699;28;20452;-70
2022/03/29 11:22:22;;;;;;;22.00;12.00;;;;;;;;;;5090511;28;20484;-70
2022/03/29 11:24:50;;;;;;;23.00;12.23;;;;;;;;;;5092716;28;20460;-70
2022/03/29 11:27:22;;;;;;;18.37;12.47;;;;;;;;;;5092530;28;20452;-70
2022/03/29 11:29:49;;;;;;;16.27;11.43;;;;;;;;;;5091628;28;20448;-70
2022/03/29 11:32:17;;;;;;;19.20;11.40;;;;;;;;;;5091873;28;20445;-70
2022/03/29 11:34:44;;;;;;;17.57;12.93;;;;;;;;;;5092182;28;20456;-70
2022/03/29 11:40:10;;;;;;;17.73;12.30;;;;;;;;;;5135494;27;20487;-70
2022/03/29 11:42:44;;;;;;;21.17;11.70;;;;;;;;;;5149714;27;20469;-71
2022/03/29 11:45:11;;;;;;;16.30;11.67;;;;;;;;;;5148959;27;20795;-70
2022/03/29 11:47:39;;;;;;;19.50;12.40;;;;;;;;;;5149271;27;20453;-70
2022/03/29 11:50:06;;;;;;;16.63;10.07;;;;;;;;;;5148540;27;20540;-69
2022/03/29 11:52:34;;;;;;;16.80;10.67;;;;;;;;;;5149002;27;20969;-70
2022/03/29 11:55:01;;;;;;;14.87;11.07;;;;;;;;;;5148732;27;20448;-70
2022/03/29 11:57:31;;;;;;;18.97;11.57;;;;;;;;;;5149505;27;20437;-70
2022/03/29 11:59:59;;;;;;;19.00;12.20;;;;;;;;;;5148468;27;20526;-70
2022/03/29 12:02:27;;;;;;;14.67;10.57;;;;;;;;;;5149428;27;20493;-70
2022/03/29 12:04:55;;;;;;;18.60;11.00;;;;;;;;;;5148662;27;20461;-69
2022/03/29 12:07:37;;;;;;;18.80;11.50;;;;;;;;;;5146528;27;20925;-70
2022/03/29 12:10:04;;;;;;;14.40;11.23;;;;;;;;;;5139219;27;20458;-69
2022/03/29 12:12:33;;;;;;;16.93;11.50;;;;;;;;;;5149224;27;20448;-70
2022/03/29 12:15:04;;;;;;;16.30;10.27;;;;;;;;;;5148178;27;20536;-70
2022/03/29 12:17:31;;;;;;;14.80;11.73;;;;;;;;;;5149253;27;20545;-70
2022/03/29 12:19:58;;;;;;;16.83;12.70;;;;;;;;;;5148036;27;20911;-70
2022/03/29 12:22:26;;;;;;;16.33;11.73;;;;;;;;;;5148940;27;20477;-70
2022/03/29 12:24:55;;;;;;;18.00;11.73;;;;;;;;;;5147939;27;20446;-68
2022/03/29 12:27:22;;;;;;;17.87;11.60;;;;;;;;;;5149055;27;20442;-71
2022/03/29 12:29:52;;;;;;;15.00;12.37;;;;;;;;;;5148064;27;20442;-69
2022/03/29 12:32:20;;;;;;;19.70;11.90;;;;;;;;;;5148967;27;20450;-70
2022/03/29 12:34:55;;;;;;;17.17;12.77;;;;;;;;;;5148298;27;20485;-70
2022/03/29 12:37:23;;;;;;;16.60;12.73;;;;;;;;;;5136855;27;20466;-70
2022/03/29 12:39:53;;;;;;;16.23;11.10;;;;;;;;;;5146317;27;20501;-70
2022/03/29 12:42:21;;;;;;;15.87;11.53;;;;;;;;;;5148388;27;20514;-69
2022/03/29 12:44:55;;;;;;;17.83;12.00;;;;;;;;;;5148459;27;20446;-70
2022/03/29 12:47:25;;;;;;;18.43;11.60;;;;;;;;;;5148626;27;20448;-70
2022/03/29 12:49:53;;;;;;;17.90;11.43;;;;;;;;;;5116469;27;20458;-70
2022/03/29 12:52:20;;;;;;;16.77;12.07;;;;;;;;;;5134462;27;20482;-69
2022/03/29 12:54:49;;;;;;;21.23;13.20;;;19.30;99.90;;;;;;5134928;27;20447;-70
2022/03/29 12:57:19;;;;;;;18.77;12.40;;;18.70;1.00;;;;;;5133926;27;20865;-70
2022/03/29 12:59:47;;;;;;;16.60;11.47;;;18.70;1.00;;;;;;5134127;27;20527;-70
2022/03/29 13:02:17;;;;;;;21.00;11.33;;;18.70;1.00;;;;;;5133910;27;20439;-69
2022/03/29 13:04:49;;;;;;;18.50;11.60;;;18.80;1.00;;;;;;5134365;27;20446;-70
2022/03/29 13:07:39;;;;;;;19.10;11.73;;;18.70;1.00;;;;;;5132302;27;20536;-70
2022/03/29 13:10:10;;;;;;;18.83;11.80;;;18.70;1.00;;;;;;5126638;27;20439;-70
2022/03/29 13:12:56;;;;;;;17.80;12.13;;;18.90;1.00;;;;;;5134342;27;20530;-70
2022/03/29 13:15:42;;;;;;;18.20;12.27;;;18.90;1.00;;;;;;5134239;27;20446;-69
2022/03/29 13:18:20;;;;;;;18.07;12.57;;;19.00;1.00;;;;;;5133531;27;20438;-69
2022/03/29 13:20:49;;;;;;;17.03;11.70;;;19.00;1.00;;;;;;5133928;27;20443;-69
2022/03/29 13:23:29;;;;;;;15.50;10.40;;;18.90;1.00;;;;;;5133020;27;20450;-69
2022/03/29 13:25:56;;;;;;;14.60;10.90;;;18.90;1.00;;;;;;5133608;27;20838;-70
2022/03/29 13:28:23;;;;;;;16.73;11.30;;;19.10;1.00;;;;;;5133892;27;20446;-70